Terminal Aerodrome Forecast
Issued by NWS Rapid City, SD

Home | Current Version | Previous Version | Graphics & Text | Print | Product List | Glossary On
Versions: 1 2 3 4 5 6 7 8 9 10 11 12 13 14 15 16 17 18
800
FTUS43 KUNR 171730
TAFRAP
TAF
KRAP 171730Z 1718/1818 17013G23KT P6SM SCT100 SCT250
      TEMPO 1723/1803 VRB20G40KT 4SM +TSRAGR BKN040CB
     FM180400 32010KT P6SM OVC250=

USA.gov is the U.S. government's official web portal to all federal, state and local government web resources and services.